Time;durP1;ratioP1;P1;durP2;ratioP2;P2;SDS_P1;SDS_P2;PMS_P1;PMS_P2;Temp;Humidity;BMP_temperature;BMP_pressure;BME280_temperature;BME280_humidity;BME280_pressure;Samples;Min_cycle;Max_cycle;Signal;HPM_P1;HPM_P2
2022/01/23 00:01:49;;;;;;;2.72;2.00;;;0.20;91.30;;;;;;1848829;76;21503;-47
2022/01/23 00:04:14;;;;;;;2.00;1.80;;;0.20;91.30;;;;;;1848906;76;21033;-49
2022/01/23 00:06:46;;;;;;;2.15;2.02;;;0.20;91.20;;;;;;1849624;76;21561;-48
2022/01/23 00:09:17;;;;;;;14.75;9.28;;;0.20;91.20;;;;;;1849722;77;21119;-49
2022/01/23 00:11:53;;;;;;;1.12;0.98;;;0.30;91.20;;;;;;1849802;77;21503;-49
2022/01/23 00:17:17;;;;;;;8.23;2.00;;;0.20;91.30;;;;;;1849657;76;21053;-48
2022/01/23 00:19:44;;;;;;;1.98;1.37;;;0.20;91.30;;;;;;1848945;77;21111;-47
2022/01/23 00:22:14;;;;;;;1.20;1.15;;;0.20;91.30;;;;;;1849638;76;21041;-48
2022/01/23 00:30:25;;;;;;;4.30;2.22;;;0.20;91.30;;;;;;1849811;77;21186;-46
2022/01/23 00:32:52;;;;;;;6.17;2.53;;;0.30;91.20;;;;;;1849400;76;21069;-49
2022/01/23 00:35:22;;;;;;;2.92;1.60;;;0.30;91.20;;;;;;1849666;76;21196;-47
2022/01/23 00:37:52;;;;;;;1.85;1.75;;;0.30;91.10;;;;;;1849666;76;21600;-48
2022/01/23 00:40:22;;;;;;;1.67;1.30;;;0.30;91.10;;;;;;1849646;77;21064;-48
2022/01/23 00:42:58;;;;;;;1.50;1.05;;;0.30;91.10;;;;;;1849771;76;21081;-49
2022/01/23 00:45:33;;;;;;;1.37;1.27;;;0.30;91.10;;;;;;1848867;76;21037;-49
2022/01/23 00:48:05;;;;;;;4.65;2.40;;;0.30;91.20;;;;;;1849700;76;21084;-46
2022/01/23 00:50:39;;;;;;;2.90;1.95;;;0.30;91.10;;;;;;1849784;76;21495;-49
2022/01/23 00:53:10;;;;;;;2.63;2.43;;;0.30;91.10;;;;;;1849853;77;21437;-51
2022/01/23 00:55:41;;;;;;;5.08;2.58;;;0.30;91.10;;;;;;1849654;77;21094;-47
2022/01/23 00:58:10;;;;;;;1.67;1.45;;;0.30;91.10;;;;;;1849723;76;21041;-47
2022/01/23 01:00:41;;;;;;;2.90;1.95;;;0.40;91.10;;;;;;1849688;77;21052;-49
2022/01/23 01:03:10;;;;;;;4.30;2.45;;;0.30;91.00;;;;;;1849713;77;21038;-49
2022/01/23 01:05:39;;;;;;;4.40;2.35;;;0.30;91.00;;;;;;1849730;77;21061;-51
2022/01/23 01:08:09;;;;;;;1.92;1.57;;;0.30;90.90;;;;;;1849668;76;21037;-49
2022/01/23 01:10:47;;;;;;;2.90;2.10;;;0.30;91.00;;;;;;1849696;77;21033;-48
2022/01/23 01:13:12;;;;;;;2.83;2.15;;;0.30;90.90;;;;;;1848357;76;21103;-47
2022/01/23 01:32:42;;;;;;;4.55;2.22;;;0.30;91.00;;;;;;1849678;77;21049;-49
2022/01/23 01:35:05;;;;;;;3.15;2.42;;;0.30;91.00;;;;;;1813397;77;21057;-45
2022/01/23 01:37:26;;;;;;;2.98;1.98;;;0.30;90.90;;;;;;1847520;76;21507;-46
2022/01/23 01:39:56;;;;;;;3.65;2.12;;;0.30;90.80;;;;;;1816593;77;21091;-47
2022/01/23 01:42:26;;;;;;;2.50;2.10;;;0.30;91.10;;;;;;1849713;77;21107;-50
2022/01/23 01:44:55;;;;;;;2.62;2.08;;;0.30;90.90;;;;;;1849627;76;21037;-50
2022/01/23 01:47:26;;;;;;;5.17;3.02;;;0.30;91.00;;;;;;1849524;77;21118;-49
2022/01/23 01:49:57;;;;;;;1.70;1.60;;;0.20;90.90;;;;;;1847250;77;21185;-48
2022/01/23 01:52:26;;;;;;;3.72;2.25;;;0.20;91.00;;;;;;1849602;76;21037;-49
2022/01/23 01:55:01;;;;;;;1.55;1.45;;;0.20;91.10;;;;;;1849755;76;21037;-48
2022/01/23 01:57:31;;;;;;;2.95;2.10;;;0.20;91.20;;;;;;1848771;77;21043;-48
2022/01/23 02:08:29;;;;;;;2.47;2.15;;;0.20;91.10;;;;;;1849276;77;21077;-47
2022/01/23 02:11:14;;;;;;;2.35;1.72;;;0.20;91.20;;;;;;1849557;76;21167;-46
2022/01/23 02:13:44;;;;;;;2.27;1.45;;;0.20;91.20;;;;;;1847971;76;21120;-48
2022/01/23 02:55:12;;;;;;;4.20;2.27;;;0.10;91.60;;;;;;1865907;77;21057;-49
2022/01/23 03:00:19;;;;;;;3.40;1.85;;;0.00;91.50;;;;;;1865912;77;21115;-49
2022/01/23 03:03:11;;;;;;;3.67;2.42;;;0.00;91.60;;;;;;1865918;77;21154;-51
2022/01/23 03:08:45;;;;;;;4.62;2.75;;;0.10;91.40;;;;;;1850909;77;21013;-49
2022/01/23 03:11:14;;;;;;;5.03;3.10;;;0.10;91.50;;;;;;1863133;77;21044;-50
2022/01/23 03:24:07;;;;;;;2.70;1.90;;;0.10;91.60;;;;;;1865804;77;21122;-48
2022/01/23 03:24:35;;;;;;;2.87;2.17;;;0.00;91.40;;;;;;1865876;77;21029;-48
2022/01/23 03:29:29;;;;;;;3.43;2.30;;;0.00;91.50;;;;;;1865974;77;21119;-46
2022/01/23 03:32:11;;;;;;;3.55;2.60;;;0.00;91.50;;;;;;1865952;77;21013;-47
2022/01/23 03:34:28;;;;;;;6.85;2.60;;;0.00;91.50;;;;;;1863399;77;21185;-50
2022/01/23 03:36:57;;;;;;;2.02;1.82;;;0.00;91.60;;;;;;1865844;77;21037;-50
2022/01/23 03:39:27;;;;;;;1.85;1.72;;;0.00;91.60;;;;;;1859194;76;21069;-51
2022/01/23 03:41:57;;;;;;;2.60;1.98;;;0.00;91.60;;;;;;1849665;77;21045;-50
2022/01/23 03:44:26;;;;;;;3.98;2.52;;;-0.10;91.60;;;;;;1849670;76;21041;-50
2022/01/23 03:47:20;;;;;;;1.80;1.50;;;0.00;91.60;;;;;;1849811;76;21100;-50
2022/01/23 03:49:33;;;;;;;3.83;2.58;;;-0.10;91.60;;;;;;1845667;77;21144;-49
2022/01/23 03:52:09;;;;;;;4.28;2.58;;;-0.10;91.50;;;;;;1819837;77;21038;-51
2022/01/23 03:54:41;;;;;;;3.33;2.08;;;-0.10;91.50;;;;;;1849725;77;21549;-50
2022/01/23 03:57:10;;;;;;;2.62;1.80;;;-0.10;91.60;;;;;;1849668;77;21041;-51
2022/01/23 03:59:40;;;;;;;4.45;2.85;;;-0.10;91.60;;;;;;1849631;76;21099;-50
2022/01/23 04:02:11;;;;;;;3.55;2.10;;;-0.10;91.80;;;;;;1849704;77;21096;-50
2022/01/23 04:04:42;;;;;;;2.27;1.87;;;-0.10;91.60;;;;;;1849729;76;21053;-50
2022/01/23 04:07:20;;;;;;;2.58;1.75;;;-0.10;91.60;;;;;;1849478;76;21100;-50
2022/01/23 04:09:49;;;;;;;3.58;2.30;;;-0.10;91.60;;;;;;1849690;76;21055;-48
2022/01/23 04:15:17;;;;;;;4.90;3.02;;;-0.10;91.60;;;;;;1849727;77;21111;-48
2022/01/23 04:31:48;;;;;;;2.58;1.70;;;-0.10;91.60;;;;;;1849737;77;21029;-49
2022/01/23 04:34:21;;;;;;;2.65;1.02;;;-0.10;91.70;;;;;;1848154;77;21128;-50
2022/01/23 04:45:26;;;;;;;4.05;2.65;;;0.00;91.50;;;;;;1849614;76;21045;-49
2022/01/23 05:04:58;;;;;;;2.52;1.65;;;0.00;91.20;;;;;;1849586;76;21052;-48
2022/01/23 05:07:46;;;;;;;3.33;2.02;;;0.00;91.20;;;;;;1849609;77;21118;-49
2022/01/23 05:10:33;;;;;;;1.75;1.62;;;0.00;91.10;;;;;;1849644;77;21092;-50
2022/01/23 05:13:04;;;;;;;4.37;2.33;;;0.00;91.20;;;;;;1848261;77;21097;-49
2022/01/23 05:15:36;;;;;;;4.58;2.77;;;0.10;91.20;;;;;;1849728;76;21045;-47
2022/01/23 05:18:05;;;;;;;3.70;2.92;;;0.10;91.20;;;;;;1849652;76;21037;-46
2022/01/23 05:20:35;;;;;;;1.47;1.37;;;0.10;91.20;;;;;;1849685;77;21037;-48
2022/01/23 05:23:06;;;;;;;2.08;1.32;;;0.10;91.00;;;;;;1849718;77;21128;-48
2022/01/23 05:25:37;;;;;;;5.75;2.00;;;0.10;91.00;;;;;;1849670;76;21061;-49
2022/01/23 05:28:07;;;;;;;4.42;2.50;;;0.10;91.10;;;;;;1849803;76;21083;-48
2022/01/23 05:30:38;;;;;;;3.20;2.17;;;0.20;91.00;;;;;;1849657;76;21037;-49
2022/01/23 05:33:09;;;;;;;3.17;2.20;;;0.20;90.90;;;;;;1849742;77;21017;-47
2022/01/23 05:35:38;;;;;;;4.20;2.37;;;0.20;90.90;;;;;;1849685;76;21541;-48
2022/01/23 05:38:07;;;;;;;4.30;2.70;;;0.20;90.90;;;;;;1849661;76;21042;-46
2022/01/23 05:40:39;;;;;;;4.08;2.85;;;0.30;91.00;;;;;;1849686;76;21135;-46
2022/01/23 05:43:09;;;;;;;3.90;2.52;;;0.40;91.00;;;;;;1849665;76;21033;-47
2022/01/23 05:45:41;;;;;;;5.60;3.02;;;0.50;91.00;;;;;;1849693;77;21005;-46
2022/01/23 05:48:12;;;;;;;3.27;2.25;;;0.50;90.90;;;;;;1849620;76;21095;-48
2022/01/23 05:50:43;;;;;;;3.77;2.42;;;0.60;90.80;;;;;;1844553;77;21084;-45
2022/01/23 05:53:30;;;;;;;2.67;2.10;;;0.60;90.80;;;;;;1849652;76;21052;-45
2022/01/23 05:56:07;;;;;;;2.60;1.98;;;0.70;90.70;;;;;;1803772;77;21039;-46
2022/01/23 05:58:56;;;;;;;3.47;2.33;;;0.80;90.70;;;;;;1849616;77;21049;-46
2022/01/23 06:01:27;;;;;;;4.33;2.62;;;0.80;90.70;;;;;;1836555;76;21098;-46
2022/01/23 06:03:58;;;;;;;3.70;2.70;;;0.90;90.80;;;;;;1848144;77;21030;-49
2022/01/23 06:06:29;;;;;;;2.83;2.37;;;0.90;90.70;;;;;;1847381;77;21143;-46
2022/01/23 06:08:58;;;;;;;4.47;2.40;;;1.00;90.70;;;;;;1849724;76;21029;-48
2022/01/23 06:11:28;;;;;;;3.00;2.70;;;1.00;90.60;;;;;;1849634;76;21099;-46
2022/01/23 06:13:57;;;;;;;4.20;2.95;;;1.10;90.70;;;;;;1849681;76;21040;-48
2022/01/23 06:16:28;;;;;;;4.17;2.17;;;1.20;90.70;;;;;;1849702;76;21127;-46
2022/01/23 06:19:15;;;;;;;2.95;2.22;;;1.30;90.70;;;;;;1849680;77;21519;-46
2022/01/23 06:22:02;;;;;;;2.00;1.75;;;1.40;90.60;;;;;;1849625;76;21130;-46
2022/01/23 06:24:44;;;;;;;2.42;1.60;;;1.50;90.40;;;;;;1846624;76;21163;-48
2022/01/23 06:27:25;;;;;;;3.45;2.55;;;1.50;89.70;;;;;;1849801;77;21180;-48
2022/01/23 06:29:54;;;;;;;2.98;1.92;;;1.50;89.70;;;;;;1849655;77;21103;-47
2022/01/23 06:32:24;;;;;;;8.15;2.72;;;1.40;89.70;;;;;;1849668;76;21088;-46
2022/01/23 06:34:54;;;;;;;3.95;2.65;;;1.40;89.60;;;;;;1849756;76;21080;-45
2022/01/23 06:37:23;;;;;;;4.45;2.95;;;1.40;89.70;;;;;;1849698;76;21135;-49
2022/01/23 06:39:53;;;;;;;5.45;3.42;;;1.40;88.60;;;;;;1849660;77;21037;-46
2022/01/23 06:42:23;;;;;;;3.87;2.67;;;1.30;89.40;;;;;;1870571;76;21118;-47
2022/01/23 06:45:07;;;;;;;2.95;2.58;;;1.30;89.70;;;;;;1874636;76;21125;-47
2022/01/23 06:47:37;;;;;;;5.03;3.20;;;1.30;89.20;;;;;;1877907;76;21114;-48
2022/01/23 06:50:07;;;;;;;4.58;3.77;;;1.30;89.20;;;;;;1843547;76;21094;-48
2022/01/23 06:52:37;;;;;;;5.15;3.20;;;1.30;89.40;;;;;;1877599;76;21036;-48
2022/01/23 06:55:07;;;;;;;5.65;3.17;;;1.30;88.50;;;;;;1877735;76;21110;-47
2022/01/23 06:57:38;;;;;;;3.55;2.80;;;1.30;89.60;;;;;;1877552;76;21070;-46
2022/01/23 07:00:08;;;;;;;3.98;2.85;;;1.40;89.70;;;;;;1877582;76;21020;-47
2022/01/23 07:02:55;;;;;;;3.95;3.15;;;1.50;90.00;;;;;;1877536;76;21072;-49
2022/01/23 07:05:39;;;;;;;3.98;2.22;;;1.60;89.70;;;;;;1872223;76;21026;-49
2022/01/23 07:08:15;;;;;;;5.33;3.10;;;1.70;89.30;;;;;;1876830;76;21063;-45
2022/01/23 07:10:46;;;;;;;5.00;3.00;;;1.80;89.10;;;;;;1874697;76;21051;-46
2022/01/23 07:13:27;;;;;;;10.58;3.62;;;1.80;88.50;;;;;;1873930;76;21048;-50
2022/01/23 07:16:13;;;;;;;5.33;3.10;;;1.80;88.00;;;;;;1876784;76;21079;-48
2022/01/23 07:18:57;;;;;;;5.30;3.72;;;1.80;88.40;;;;;;1872264;76;21035;-45
2022/01/23 07:21:28;;;;;;;5.15;3.30;;;1.90;89.10;;;;;;1876924;76;21036;-45
2022/01/23 07:23:57;;;;;;;4.08;2.87;;;2.00;88.40;;;;;;1877647;76;21028;-46
2022/01/23 07:26:28;;;;;;;3.50;2.50;;;2.00;88.00;;;;;;1877541;76;21056;-48
2022/01/23 07:29:02;;;;;;;;;;;2.00;86.10;;;;;;1880172;76;21048;-47
2022/01/23 07:34:07;;;;;;;5.30;3.12;;;1.90;86.80;;;;;;1877667;76;21016;-47
2022/01/23 07:36:39;;;;;;;6.20;3.20;;;1.90;87.70;;;;;;1877529;76;21518;-49
2022/01/23 07:39:10;;;;;;;4.60;2.87;;;1.90;87.20;;;;;;1873986;76;21040;-48
2022/01/23 07:41:41;;;;;;;5.22;3.37;;;1.90;87.60;;;;;;1871148;76;21142;-45
2022/01/23 07:44:21;;;;;;;3.42;2.50;;;1.90;88.10;;;;;;1863894;77;21122;-47
2022/01/23 07:47:09;;;;;;;5.00;3.87;;;1.90;87.40;;;;;;1865829;77;21573;-47
2022/01/23 07:49:44;;;;;;;4.62;3.25;;;1.90;87.40;;;;;;1863147;77;21087;-46
2022/01/23 07:52:15;;;;;;;3.65;2.92;;;1.90;86.60;;;;;;1861779;77;21017;-46
2022/01/23 07:54:52;;;;;;;4.22;3.60;;;1.90;87.10;;;;;;1863189;77;21121;-49
2022/01/23 07:57:31;;;;;;;2.35;1.80;;;1.90;86.70;;;;;;1865138;77;21056;-47
2022/01/23 08:00:04;;;;;;;4.30;2.87;;;1.90;86.10;;;;;;1861981;77;21552;-46
2022/01/23 08:02:44;;;;;;;5.28;3.40;;;1.90;87.10;;;;;;1865894;77;21173;-48
2022/01/23 08:05:27;;;;;;;4.92;3.77;;;1.90;87.40;;;;;;1863968;77;21113;-47
2022/01/23 08:08:01;;;;;;;5.33;3.40;;;2.00;87.60;;;;;;1857936;77;21056;-45
2022/01/23 08:10:50;;;;;;;7.42;3.95;;;2.00;87.60;;;;;;1854005;77;21044;-47
2022/01/23 08:13:20;;;;;;;5.53;3.35;;;2.00;87.00;;;;;;1865698;77;21041;-46
2022/01/23 08:15:49;;;;;;;4.78;3.12;;;2.00;86.60;;;;;;1865831;77;21029;-48
2022/01/23 08:18:19;;;;;;;4.33;3.00;;;2.10;86.90;;;;;;1865849;77;21033;-48
2022/01/23 08:20:49;;;;;;;2.62;2.00;;;2.10;87.10;;;;;;1865807;77;21017;-45
2022/01/23 08:35:06;;;;;;;5.28;4.35;;;2.10;84.10;;;;;;1941869;74;28066;-45
2022/01/23 08:37:36;;;;;;;6.65;5.00;;;2.40;84.60;;;;;;1917983;75;21182;-46
2022/01/23 08:40:16;;;;;;;8.23;4.05;;;2.40;85.40;;;;;;1918113;74;21091;-48
2022/01/23 08:42:37;;;;;;;6.33;3.92;;;2.40;84.50;;;;;;1915962;75;21002;-45
2022/01/23 08:45:07;;;;;;;4.15;3.47;;;2.40;85.10;;;;;;1918070;75;21076;-47
2022/01/23 08:47:36;;;;;;;6.42;3.27;;;2.40;85.80;;;;;;1917976;75;20990;-45
2022/01/23 08:50:06;;;;;;;5.30;3.37;;;2.50;85.70;;;;;;1918092;74;21049;-48
2022/01/23 08:52:36;;;;;;;5.40;3.77;;;2.50;84.90;;;;;;1918011;75;21172;-49
2022/01/23 08:55:05;;;;;;;5.75;3.72;;;2.50;84.40;;;;;;1918274;75;21053;-48
2022/01/23 08:57:35;;;;;;;5.92;3.67;;;2.50;84.80;;;;;;1918099;75;21044;-48
2022/01/23 09:00:06;;;;;;;7.87;4.20;;;2.50;85.40;;;;;;1918113;75;20975;-45
2022/01/23 09:02:35;;;;;;;3.87;3.35;;;2.50;85.20;;;;;;1918258;75;21530;-47
2022/01/23 09:05:06;;;;;;;8.80;4.55;;;2.60;85.20;;;;;;1918037;75;21006;-46
2022/01/23 09:07:35;;;;;;;5.28;4.12;;;2.60;84.40;;;;;;1918123;75;21053;-47
2022/01/23 09:10:06;;;;;;;5.62;3.60;;;2.60;84.80;;;;;;1918098;75;21034;-49
2022/01/23 09:15:09;;;;;;;7.85;3.30;;;2.60;85.30;;;;;;1918065;75;21018;-45
2022/01/23 09:17:39;;;;;;;4.60;3.33;;;2.70;84.90;;;;;;1918061;75;21080;-48
2022/01/23 09:20:09;;;;;;;5.25;3.47;;;2.80;83.90;;;;;;1918169;75;21006;-48
2022/01/23 09:22:39;;;;;;;3.52;2.87;;;2.90;85.00;;;;;;1917952;75;20998;-45
2022/01/23 09:25:09;;;;;;;4.87;3.00;;;2.90;83.00;;;;;;1918136;75;21014;-47
2022/01/23 09:27:40;;;;;;;4.55;3.62;;;3.00;84.80;;;;;;1918126;75;21064;-46
2022/01/23 09:30:16;;;;;;;6.40;3.37;;;3.00;84.10;;;;;;1918022;75;21005;-46
2022/01/23 09:32:42;;;;;;;4.72;3.22;;;3.10;84.20;;;;;;1916223;75;21010;-46
2022/01/23 09:35:14;;;;;;;6.30;3.60;;;3.20;84.60;;;;;;1917656;74;21010;-46
2022/01/23 09:37:44;;;;;;;7.05;3.90;;;3.30;83.30;;;;;;1917411;75;20998;-48
2022/01/23 09:40:14;;;;;;;5.40;3.90;;;3.30;83.50;;;;;;1917371;75;21002;-49
2022/01/23 09:42:47;;;;;;;5.58;3.85;;;3.30;83.10;;;;;;1917478;75;21022;-46
2022/01/23 09:45:17;;;;;;;6.30;4.87;;;3.30;83.40;;;;;;1913224;75;21022;-45
2022/01/23 09:47:46;;;;;;;4.70;4.08;;;3.30;83.60;;;;;;1917436;75;21041;-46
2022/01/23 09:50:16;;;;;;;5.17;3.65;;;3.40;83.00;;;;;;1917238;75;21143;-47
2022/01/23 09:52:48;;;;;;;5.28;4.22;;;3.30;82.50;;;;;;1917228;75;21022;-45
2022/01/23 09:55:17;;;;;;;7.40;3.67;;;3.40;83.80;;;;;;1917290;74;21007;-46
2022/01/23 09:57:48;;;;;;;4.20;3.40;;;3.40;82.50;;;;;;1917229;75;21034;-44
2022/01/23 10:00:27;;;;;;;4.15;3.50;;;3.30;82.40;;;;;;1917339;75;20994;-49
2022/01/23 10:02:57;;;;;;;6.45;3.80;;;3.30;83.40;;;;;;1917233;74;21107;-48
2022/01/23 10:05:27;;;;;;;3.75;2.95;;;3.30;81.80;;;;;;1917362;75;21053;-46
2022/01/23 10:07:58;;;;;;;6.45;3.77;;;3.30;82.30;;;;;;1917511;75;21038;-49
2022/01/23 10:10:28;;;;;;;3.58;2.75;;;3.30;82.00;;;;;;1917373;75;21002;-48
2022/01/23 10:13:01;;;;;;;4.00;3.22;;;3.30;80.70;;;;;;1917328;75;21158;-49
2022/01/23 10:15:32;;;;;;;5.42;3.87;;;3.20;80.60;;;;;;1917484;75;21030;-46
2022/01/23 10:18:03;;;;;;;6.40;3.77;;;3.00;81.10;;;;;;1917352;75;21007;-46
2022/01/23 10:20:34;;;;;;;5.67;4.05;;;2.90;81.30;;;;;;1917417;75;21006;-46
2022/01/23 10:23:03;;;;;;;5.95;4.22;;;2.80;81.00;;;;;;1917368;75;21057;-45
2022/01/23 10:25:33;;;;;;;7.40;4.87;;;2.70;81.60;;;;;;1917417;75;20982;-46
2022/01/23 10:28:06;;;;;;;6.40;3.70;;;2.80;82.50;;;;;;1917430;75;20984;-48
2022/01/23 10:30:49;;;;;;;7.30;4.58;;;2.70;82.40;;;;;;1917589;75;21010;-49
2022/01/23 10:33:31;;;;;;;7.33;4.45;;;2.80;82.60;;;;;;1917347;75;21015;-48
2022/01/23 10:36:08;;;;;;;5.97;4.15;;;2.80;83.70;;;;;;1931639;74;21037;-48
2022/01/23 10:38:57;;;;;;;4.95;3.77;;;3.00;83.60;;;;;;1933385;74;21067;-48
2022/01/23 10:50:09;;;;;;;5.03;4.35;;;3.30;82.30;;;;;;1933551;74;21026;-45
2022/01/23 10:52:42;;;;;;;7.28;4.70;;;3.30;83.90;;;;;;1933515;74;21006;-48
2022/01/23 10:55:24;;;;;;;6.17;5.08;;;3.40;83.60;;;;;;1933387;74;21079;-49
2022/01/23 10:57:57;;;;;;;7.67;4.00;;;3.50;83.20;;;;;;1933455;74;21026;-47
2022/01/23 11:00:29;;;;;;;6.17;4.30;;;3.60;81.40;;;;;;1933530;74;21060;-49
2022/01/23 11:03:00;;;;;;;7.50;4.92;;;3.60;81.20;;;;;;1933492;74;20986;-47
2022/01/23 11:05:34;;;;;;;5.40;3.95;;;3.40;80.50;;;;;;1933499;74;21040;-48
2022/01/23 11:08:06;;;;;;;7.03;5.15;;;3.40;82.00;;;;;;1933655;74;21079;-50
2022/01/23 11:10:35;;;;;;;7.25;4.33;;;3.30;82.00;;;;;;1928916;73;21010;-47
2022/01/23 11:18:38;;;;;;;6.87;5.03;;;3.10;82.50;;;;;;1933648;74;21029;-49
2022/01/23 11:21:19;;;;;;;5.90;4.83;;;3.10;83.00;;;;;;1933772;74;21092;-49
2022/01/23 11:23:56;;;;;;;9.05;5.45;;;3.20;83.30;;;;;;1932491;74;21063;-45
2022/01/23 11:26:27;;;;;;;6.90;4.75;;;3.20;82.80;;;;;;1890074;76;21352;-49
2022/01/23 11:28:57;;;;;;;8.10;3.77;;;3.30;82.70;;;;;;1933509;74;21044;-49
2022/01/23 11:31:27;;;;;;;6.80;4.40;;;3.30;82.20;;;;;;1890107;76;21104;-49
2022/01/23 11:33:58;;;;;;;7.05;5.37;;;3.20;82.40;;;;;;1933434;74;20978;-49
2022/01/23 11:36:27;;;;;;;6.97;5.00;;;3.20;82.50;;;;;;1872357;76;21082;-49
2022/01/23 11:39:06;;;;;;;9.63;5.53;;;3.20;81.40;;;;;;1868383;77;21094;-49
2022/01/23 11:55:36;;;;;;;29.63;16.07;;;3.30;82.20;;;;;;1909058;75;21100;-48
2022/01/23 11:58:06;;;;;;;6.67;4.42;;;3.30;82.50;;;;;;1917254;75;21498;-50
2022/01/23 12:00:40;;;;;;;8.03;5.53;;;3.30;82.20;;;;;;1917391;75;21006;-48
2022/01/23 12:03:17;;;;;;;9.75;5.28;;;3.30;83.00;;;;;;1917408;75;21030;-50
2022/01/23 12:05:49;;;;;;;6.87;5.00;;;3.30;82.20;;;;;;1917318;75;21049;-47
2022/01/23 12:08:21;;;;;;;7.05;5.80;;;3.20;82.50;;;;;;1917393;75;21064;-48
2022/01/23 12:11:56;;;;;;;5.95;4.60;;;3.20;82.10;;;;;;1916362;75;21026;-47
2022/01/23 12:18:54;;;;;;;7.65;5.33;;;3.20;82.70;;;;;;1868982;75;21002;-48
2022/01/23 12:21:31;;;;;;;9.90;5.22;;;3.10;82.70;;;;;;1912124;75;21022;-48
2022/01/23 12:24:05;;;;;;;7.78;5.75;;;3.10;82.20;;;;;;1917316;75;20982;-48
2022/01/23 12:26:35;;;;;;;8.30;5.95;;;3.00;82.30;;;;;;1917452;75;20998;-49
2022/01/23 12:29:23;;;;;;;6.42;4.85;;;3.00;82.30;;;;;;1917285;75;21096;-48
2022/01/23 12:32:34;;;;;;;7.08;5.30;;;3.00;83.00;;;;;;1917424;75;21014;-47
2022/01/23 12:35:05;;;;;;;6.22;5.22;;;3.00;83.10;;;;;;1917327;74;20970;-48
2022/01/23 12:38:00;;;;;;;8.13;4.60;;;3.10;83.20;;;;;;1917375;75;20998;-48
2022/01/23 12:40:40;;;;;;;10.80;5.67;;;3.10;82.40;;;;;;1917493;75;21030;-50
2022/01/23 12:43:11;;;;;;;6.83;5.12;;;3.10;82.80;;;;;;1917236;75;20990;-50
2022/01/23 12:45:58;;;;;;;8.65;5.78;;;3.00;83.00;;;;;;1916479;75;21006;-48
2022/01/23 12:48:30;;;;;;;9.40;5.37;;;3.00;83.10;;;;;;1917472;75;21057;-49
2022/01/23 12:51:02;;;;;;;8.73;5.90;;;3.00;83.00;;;;;;1917375;75;20991;-50
2022/01/23 12:53:46;;;;;;;7.05;5.03;;;3.00;82.60;;;;;;1917332;75;21084;-49
2022/01/23 12:56:18;;;;;;;5.58;4.47;;;2.90;82.80;;;;;;1917464;75;20998;-50
2022/01/23 12:59:13;;;;;;;7.05;4.97;;;2.80;82.30;;;;;;1917188;75;21046;-51
2022/01/23 13:01:46;;;;;;;8.45;4.75;;;2.70;82.60;;;;;;1917430;75;21096;-49
2022/01/23 13:04:16;;;;;;;9.47;6.00;;;2.80;83.40;;;;;;1917413;75;21010;-51
2022/01/23 13:06:59;;;;;;;8.53;5.55;;;2.70;83.10;;;;;;1917123;75;21006;-50
2022/01/23 13:09:31;;;;;;;11.18;6.00;;;2.60;82.40;;;;;;1914521;75;21006;-46
2022/01/23 13:12:11;;;;;;;6.50;5.28;;;2.60;83.20;;;;;;1915525;75;20995;-47
2022/01/23 13:15:00;;;;;;;8.08;4.58;;;2.50;83.50;;;;;;1915796;75;21108;-49
2022/01/23 13:27:09;;;;;;;6.33;4.35;;;2.20;83.50;;;;;;1917494;75;21006;-47
2022/01/23 13:32:18;;;;;;;5.78;5.10;;;2.10;83.30;;;;;;1917599;75;21136;-49
2022/01/23 13:34:49;;;;;;;6.60;5.53;;;2.10;83.20;;;;;;1915508;75;21030;-50
2022/01/23 13:37:24;;;;;;;10.05;5.70;;;2.00;83.20;;;;;;1929662;74;21025;-48
2022/01/23 13:40:00;;;;;;;10.65;6.60;;;2.00;83.70;;;;;;1890126;76;21046;-48
2022/01/23 13:42:49;;;;;;;7.92;5.78;;;1.90;83.60;;;;;;1933531;74;21083;-48
2022/01/23 13:59:48;;;;;;;7.50;5.28;;;1.70;84.50;;;;;;1933574;74;21015;-47
2022/01/23 14:04:47;;;;;;;9.30;6.28;;;1.60;84.40;;;;;;1933428;74;21095;-47
2022/01/23 14:07:27;;;;;;;8.90;5.72;;;1.40;84.40;;;;;;1888010;76;21050;-47
2022/01/23 14:09:59;;;;;;;9.85;6.72;;;1.40;84.70;;;;;;1933577;74;21055;-50
2022/01/23 14:12:29;;;;;;;12.45;7.55;;;1.40;84.80;;;;;;1889995;76;21041;-48
2022/01/23 14:15:05;;;;;;;14.87;8.10;;;1.40;85.10;;;;;;1933118;74;21052;-47
2022/01/23 14:17:39;;;;;;;11.78;6.72;;;1.40;85.10;;;;;;1890025;76;21149;-47
2022/01/23 14:20:17;;;;;;;10.18;6.60;;;1.50;85.20;;;;;;1933414;74;21154;-50
2022/01/23 14:22:48;;;;;;;10.32;6.00;;;1.50;85.40;;;;;;1890091;76;21103;-49
2022/01/23 14:25:20;;;;;;;12.05;7.10;;;1.70;85.80;;;;;;1933506;74;21127;-50
2022/01/23 14:28:14;;;;;;;13.93;7.28;;;1.70;85.50;;;;;;1890040;76;21014;-50
2022/01/23 14:30:48;;;;;;;11.88;7.85;;;1.80;85.20;;;;;;1933441;74;21120;-47
2022/01/23 14:33:24;;;;;;;9.38;6.58;;;1.80;85.40;;;;;;1889256;76;21108;-49
2022/01/23 14:35:53;;;;;;;11.15;7.22;;;1.90;85.50;;;;;;1933343;74;20986;-48
2022/01/23 14:38:25;;;;;;;12.00;7.30;;;1.90;85.40;;;;;;1869197;76;21117;-47
2022/01/23 14:40:56;;;;;;;11.03;6.33;;;1.90;85.50;;;;;;1876831;75;21492;-48
2022/01/23 14:43:40;;;;;;;12.58;7.45;;;1.90;85.70;;;;;;1877647;76;21058;-47
2022/01/23 14:46:11;;;;;;;9.38;6.10;;;2.00;85.50;;;;;;1904385;75;21015;-49
2022/01/23 14:48:48;;;;;;;13.28;6.80;;;1.90;85.50;;;;;;1905078;75;20975;-49
2022/01/23 14:51:23;;;;;;;9.73;6.60;;;1.90;85.00;;;;;;1905011;75;21017;-50
2022/01/23 14:53:51;;;;;;;9.80;6.85;;;1.90;84.90;;;;;;1904690;75;21011;-49
2022/01/23 14:56:21;;;;;;;9.58;6.45;;;1.80;85.20;;;;;;1904946;75;21077;-49
2022/01/23 14:58:50;;;;;;;10.08;6.33;;;1.80;85.40;;;;;;1905061;75;21046;-49
2022/01/23 15:01:19;;;;;;;8.98;6.33;;;1.80;85.60;;;;;;1904969;75;21031;-50
2022/01/23 15:03:55;;;;;;;10.43;6.37;;;1.80;86.40;;;;;;1904924;75;21076;-49
2022/01/23 15:06:24;;;;;;;10.35;7.50;;;1.90;85.70;;;;;;1904933;75;21081;-49
2022/01/23 15:08:53;;;;;;;9.38;7.17;;;1.90;86.00;;;;;;1904980;75;21069;-49
2022/01/23 15:11:23;;;;;;;11.85;7.17;;;2.00;85.90;;;;;;1905002;75;21015;-50
2022/01/23 15:13:52;;;;;;;12.85;7.42;;;2.00;85.90;;;;;;1904845;75;21077;-50
2022/01/23 15:16:22;;;;;;;8.68;6.83;;;2.00;85.90;;;;;;1904991;75;21072;-47
2022/01/23 15:18:51;;;;;;;10.72;6.75;;;2.00;85.80;;;;;;1904882;75;20999;-48
2022/01/23 15:21:20;;;;;;;8.73;6.70;;;2.00;85.80;;;;;;1904918;75;21003;-49
2022/01/23 15:23:55;;;;;;;9.15;6.60;;;2.00;85.90;;;;;;1904896;75;21116;-48
2022/01/23 15:26:21;;;;;;;10.68;6.60;;;2.10;86.00;;;;;;1902143;75;21064;-49
2022/01/23 15:28:50;;;;;;;11.25;8.05;;;2.10;85.20;;;;;;1905055;75;21015;-47
2022/01/23 15:31:20;;;;;;;12.03;7.30;;;1.90;84.70;;;;;;1904928;75;21003;-47
2022/01/23 15:33:49;;;;;;;11.10;7.85;;;1.90;85.00;;;;;;1904970;75;21093;-51
2022/01/23 15:36:19;;;;;;;11.55;7.10;;;1.80;85.60;;;;;;1905004;75;21002;-48
2022/01/23 15:38:48;;;;;;;13.00;8.33;;;1.70;85.60;;;;;;1897256;75;21167;-50
2022/01/23 15:41:18;;;;;;;13.08;8.43;;;1.70;85.90;;;;;;1896487;76;21127;-50
2022/01/23 15:43:47;;;;;;;10.65;7.97;;;1.70;85.80;;;;;;1896464;75;21162;-50
2022/01/23 15:46:17;;;;;;;13.32;8.28;;;1.80;86.10;;;;;;1896406;75;21087;-50
2022/01/23 15:48:46;;;;;;;11.48;7.97;;;1.90;86.20;;;;;;1896568;75;21095;-48
2022/01/23 15:51:16;;;;;;;12.60;8.58;;;1.90;86.20;;;;;;1896550;76;21033;-51
2022/01/23 15:53:45;;;;;;;10.35;7.90;;;1.90;86.30;;;;;;1896470;76;21095;-49
2022/01/23 15:56:15;;;;;;;11.12;7.85;;;2.00;86.80;;;;;;1896449;75;21022;-50
2022/01/23 15:58:44;;;;;;;11.80;8.23;;;2.10;86.30;;;;;;1896439;76;21018;-48
2022/01/23 16:01:13;;;;;;;12.98;8.00;;;2.10;86.10;;;;;;1896399;76;21053;-50
2022/01/23 16:03:43;;;;;;;12.10;8.33;;;2.20;86.10;;;;;;1896494;76;21105;-47
2022/01/23 16:06:13;;;;;;;10.35;8.13;;;2.20;86.20;;;;;;1896481;75;21495;-49
2022/01/23 16:08:43;;;;;;;13.50;8.93;;;2.20;86.10;;;;;;1896410;76;21018;-49
2022/01/23 16:11:12;;;;;;;12.63;7.80;;;2.20;85.80;;;;;;1896486;76;21013;-48
2022/01/23 16:13:41;;;;;;;13.18;8.68;;;2.10;86.00;;;;;;1896571;76;21104;-47
2022/01/23 16:16:11;;;;;;;12.43;8.80;;;2.10;86.10;;;;;;1896488;76;21116;-48
2022/01/23 16:18:42;;;;;;;13.93;8.55;;;2.10;86.10;;;;;;1896520;75;21104;-48
2022/01/23 16:21:11;;;;;;;11.00;7.65;;;2.10;86.10;;;;;;1896413;76;21108;-49
2022/01/23 16:23:41;;;;;;;13.32;8.05;;;2.10;86.00;;;;;;1896385;75;21025;-48
2022/01/23 16:26:10;;;;;;;12.88;8.65;;;2.10;86.10;;;;;;1896400;76;21033;-49
2022/01/23 16:28:40;;;;;;;14.70;9.03;;;2.10;86.10;;;;;;1896431;75;21104;-48
2022/01/23 16:31:10;;;;;;;12.00;8.93;;;2.10;86.20;;;;;;1896384;76;21009;-50
2022/01/23 16:33:39;;;;;;;12.50;8.55;;;2.10;86.40;;;;;;1896525;76;21107;-51
2022/01/23 16:36:10;;;;;;;11.83;8.28;;;2.20;86.60;;;;;;1896452;76;21065;-48
2022/01/23 16:38:40;;;;;;;12.30;8.70;;;2.20;86.20;;;;;;1896384;74;21057;-49
2022/01/23 16:41:09;;;;;;;12.35;8.48;;;2.20;86.20;;;;;;1896398;76;21037;-49
2022/01/23 16:43:39;;;;;;;12.33;8.23;;;2.10;86.20;;;;;;1896566;76;21045;-49
2022/01/23 16:46:08;;;;;;;12.93;8.80;;;2.10;86.20;;;;;;1896662;76;21076;-49
2022/01/23 16:48:37;;;;;;;12.95;7.95;;;2.10;86.40;;;;;;1896651;76;21459;-49
2022/01/23 16:51:08;;;;;;;11.83;8.05;;;2.10;86.40;;;;;;1896567;74;21030;-48
2022/01/23 16:53:39;;;;;;;9.80;7.35;;;2.10;86.50;;;;;;1896767;76;21140;-47
2022/01/23 16:56:08;;;;;;;10.98;6.95;;;2.10;86.60;;;;;;1896690;76;21080;-49